createdAt,value
2016-04-16T00:00:07.819Z,980.18
2016-04-16T00:01:07.805Z,980.22
2016-04-16T00:02:07.808Z,980.21
2016-04-16T00:03:07.811Z,980.21
2016-04-16T00:04:07.814Z,980.24
2016-04-16T00:05:07.802Z,980.27
2016-04-16T00:06:07.804Z,980.32
2016-04-16T00:07:07.822Z,980.29
2016-04-16T00:08:07.809Z,980.26
2016-04-16T00:09:07.812Z,980.3
2016-04-16T00:10:07.815Z,980.31
2016-04-16T00:11:07.817Z,980.33
2016-04-16T00:12:14.072Z,980.33
2016-04-16T00:13:07.806Z,980.34
2016-04-16T00:14:07.809Z,980.32
2016-04-16T00:15:07.812Z,980.3
2016-04-16T00:16:07.815Z,980.34
2016-04-16T00:17:20.555Z,980.33
2016-04-16T00:18:07.805Z,980.35
2016-04-16T00:19:07.807Z,980.26
2016-04-16T00:20:07.810Z,980.29
2016-04-16T00:21:07.828Z,980.24
2016-04-16T00:22:07.815Z,980.28
2016-04-16T00:23:07.818Z,980.27
2016-04-16T00:24:07.821Z,980.26
2016-04-16T00:25:07.809Z,980.27
2016-04-16T00:26:07.811Z,980.26
2016-04-16T00:27:07.814Z,980.24
2016-04-16T00:28:07.816Z,980.25
2016-04-16T00:29:07.819Z,980.26
2016-04-16T00:30:07.822Z,980.23
2016-04-16T00:31:07.824Z,980.21
2016-04-16T00:32:07.827Z,980.27
2016-04-16T00:33:07.829Z,980.3
2016-04-16T00:34:07.816Z,980.29
2016-04-16T00:35:07.819Z,980.28
2016-04-16T00:36:07.806Z,980.27
2016-04-16T00:37:07.825Z,980.28
2016-04-16T00:38:07.811Z,980.29
2016-04-16T00:39:20.566Z,980.25
2016-04-16T00:40:07.816Z,980.25
2016-04-16T00:41:07.819Z,980.26
2016-04-16T00:42:07.822Z,980.33
2016-04-16T00:43:07.809Z,980.31
2016-04-16T00:44:07.812Z,980.32
2016-04-16T00:45:07.814Z,980.33
2016-04-16T00:46:20.554Z,980.3
2016-04-16T00:47:07.820Z,980.28
2016-04-16T00:48:07.823Z,980.32
2016-04-16T00:49:07.826Z,980.33
2016-04-16T00:50:07.844Z,980.29
2016-04-16T00:51:07.815Z,980.27
2016-04-16T00:52:07.818Z,980.2
2016-04-16T00:53:07.820Z,980.21
2016-04-16T00:54:20.561Z,980.19
2016-04-16T00:55:07.826Z,980.15
2016-04-16T00:56:07.829Z,980.12
2016-04-16T00:57:07.817Z,980.09
2016-04-16T00:58:07.819Z,980.03
2016-04-16T00:59:20.558Z,980.03
2016-04-16T01:00:07.824Z,980.03
2016-04-16T01:01:07.827Z,980
2016-04-16T01:02:07.829Z,980
2016-04-16T01:03:08.035Z,979.93
2016-04-16T01:04:07.835Z,979.83
2016-04-16T01:05:07.822Z,979.81
2016-04-16T01:06:07.825Z,979.82
2016-04-16T01:07:07.827Z,979.76
2016-04-16T01:08:07.830Z,979.76
2016-04-16T01:09:07.832Z,979.74
2016-04-16T01:10:07.835Z,979.69
2016-04-16T01:11:07.822Z,979.64
2016-04-16T01:12:07.824Z,979.63
2016-04-16T01:13:07.827Z,979.55
2016-04-16T01:14:14.099Z,979.51
2016-04-16T01:15:07.833Z,979.48
2016-04-16T01:16:07.835Z,979.5
2016-04-16T01:17:07.854Z,979.49
2016-04-16T01:18:07.825Z,979.51
2016-04-16T01:19:14.112Z,979.53
2016-04-16T01:20:07.831Z,979.55
2016-04-16T01:21:07.833Z,979.53
2016-04-16T01:22:07.837Z,979.46
2016-04-16T01:23:07.839Z,979.44
2016-04-16T01:24:07.857Z,979.36
2016-04-16T01:25:20.581Z,979.38
2016-04-16T01:26:08.050Z,979.36
2016-04-16T01:27:07.833Z,979.32
2016-04-16T01:28:07.836Z,979.31
2016-04-16T01:29:07.839Z,979.31
2016-04-16T01:30:07.826Z,979.31
2016-04-16T01:31:07.828Z,979.28
2016-04-16T01:32:07.831Z,979.29
2016-04-16T01:33:07.834Z,979.3
2016-04-16T01:34:07.821Z,979.29
2016-04-16T01:35:20.561Z,979.27
2016-04-16T01:36:07.827Z,979.29
2016-04-16T01:37:07.829Z,979.28
2016-04-16T01:38:07.832Z,979.27
2016-04-16T01:39:07.835Z,979.27
2016-04-16T01:40:07.821Z,979.25
2016-04-16T01:41:07.840Z,979.18
2016-04-16T01:42:07.827Z,979.21
2016-04-16T01:43:20.567Z,979.2
2016-04-16T01:44:07.832Z,979.22
2016-04-16T01:45:07.835Z,979.17
2016-04-16T01:46:07.823Z,979.22
2016-04-16T01:47:07.826Z,979.25
2016-04-16T01:48:07.829Z,979.27
2016-04-16T01:49:07.815Z,979.28
2016-04-16T01:50:07.849Z,979.26
2016-04-16T01:51:08.023Z,979.22
2016-04-16T01:52:07.823Z,979.22
2016-04-16T01:53:07.825Z,979.16
2016-04-16T01:54:07.828Z,979.12
2016-04-16T01:55:07.815Z,979.1
2016-04-16T01:56:07.818Z,979.04
2016-04-16T01:57:07.821Z,978.98
2016-04-16T01:58:07.839Z,978.93
2016-04-16T01:59:07.826Z,978.88
2016-04-16T02:00:07.828Z,978.88
2016-04-16T02:01:07.816Z,978.88
2016-04-16T02:02:20.571Z,978.84
2016-04-16T02:03:07.825Z,978.86
2016-04-16T02:04:07.828Z,978.82
2016-04-16T02:05:07.830Z,978.82
2016-04-16T02:06:07.833Z,978.78
2016-04-16T02:07:07.820Z,978.78
2016-04-16T02:08:07.823Z,978.77
2016-04-16T02:09:07.825Z,978.73
2016-04-16T02:10:07.828Z,978.74
2016-04-16T02:11:07.831Z,978.74
2016-04-16T02:12:07.834Z,978.71
2016-04-16T02:13:07.821Z,978.73
2016-04-16T02:14:07.823Z,978.69
2016-04-16T02:15:07.826Z,978.7
2016-04-16T02:16:07.828Z,978.65
2016-04-16T02:17:07.816Z,978.68
2016-04-16T02:18:07.818Z,978.7
2016-04-16T02:19:07.836Z,978.66
2016-04-16T02:20:20.577Z,978.68
2016-04-16T02:21:07.827Z,978.66
2016-04-16T02:22:07.831Z,978.68
2016-04-16T02:23:07.835Z,978.7
2016-04-16T02:24:07.821Z,978.68
2016-04-16T02:25:07.824Z,978.64
2016-04-16T02:26:07.826Z,978.61
2016-04-16T02:27:07.829Z,978.56
2016-04-16T02:28:07.832Z,978.52
2016-04-16T02:29:07.818Z,978.51
2016-04-16T02:30:07.822Z,978.53
2016-04-16T02:31:07.824Z,978.53
2016-04-16T02:32:07.812Z,978.51
2016-04-16T02:33:20.582Z,978.52
2016-04-16T02:34:07.832Z,978.54
2016-04-16T02:35:07.819Z,978.56
2016-04-16T02:36:07.822Z,978.57
2016-04-16T02:37:07.825Z,978.53
2016-04-16T02:38:07.828Z,978.48
2016-04-16T02:39:07.831Z,978.5
2016-04-16T02:40:07.833Z,978.52
2016-04-16T02:41:07.836Z,978.48
2016-04-16T02:42:20.560Z,978.47
2016-04-16T02:43:20.562Z,978.49
2016-04-16T02:44:07.827Z,978.46
2016-04-16T02:45:07.856Z,978.43
2016-04-16T02:46:07.902Z,978.39
2016-04-16T02:47:07.947Z,978.42
2016-04-16T02:48:07.993Z,978.38
2016-04-16T02:49:08.038Z,978.4
2016-04-16T02:50:08.041Z,978.37
2016-04-16T02:51:08.059Z,978.38
2016-04-16T02:52:08.077Z,978.33
2016-04-16T02:53:20.848Z,978.35
2016-04-16T02:54:08.114Z,978.27
2016-04-16T02:55:08.122Z,978.32
2016-04-16T02:56:08.114Z,978.31
2016-04-16T02:57:08.123Z,978.3
2016-04-16T02:58:20.874Z,978.33
2016-04-16T02:59:08.139Z,978.29
2016-04-16T03:00:08.144Z,978.21
2016-04-16T03:01:08.134Z,978.21
2016-04-16T03:02:08.138Z,978.24
2016-04-16T03:03:08.144Z,978.18
2016-04-16T03:04:20.885Z,978.18
2016-04-16T03:05:08.151Z,978.16
2016-04-16T03:06:08.155Z,978.08
2016-04-16T03:07:08.142Z,978.12
2016-04-16T03:08:08.162Z,978.01
2016-04-16T03:09:08.149Z,978.09
2016-04-16T03:10:08.152Z,978.13
2016-04-16T03:11:08.155Z,978.17
2016-04-16T03:12:08.143Z,978.27
2016-04-16T03:13:08.162Z,978.23
2016-04-16T03:14:08.149Z,978.27
2016-04-16T03:15:20.889Z,978.25
2016-04-16T03:16:08.154Z,978.29
2016-04-16T03:17:08.157Z,978.13
2016-04-16T03:18:08.144Z,977.96
2016-04-16T03:19:08.147Z,977.9
2016-04-16T03:20:08.149Z,977.88
2016-04-16T03:21:08.153Z,977.86
2016-04-16T03:22:08.155Z,977.82
2016-04-16T03:23:08.158Z,977.8
2016-04-16T03:24:08.144Z,977.78
2016-04-16T03:25:08.147Z,977.76
2016-04-16T03:26:08.149Z,977.69
2016-04-16T03:27:20.890Z,977.79
2016-04-16T03:28:08.155Z,977.82
2016-04-16T03:29:08.158Z,977.72
2016-04-16T03:30:08.146Z,977.74
2016-04-16T03:31:08.148Z,977.79
2016-04-16T03:32:08.151Z,977.85
2016-04-16T03:33:20.890Z,977.83
2016-04-16T03:34:08.140Z,977.84
2016-04-16T03:35:08.143Z,977.86
2016-04-16T03:36:08.161Z,977.88
2016-04-16T03:37:08.148Z,977.88
2016-04-16T03:38:08.151Z,977.84
2016-04-16T03:39:08.201Z,977.83
2016-04-16T03:40:08.203Z,977.78
2016-04-16T03:41:08.159Z,977.77
2016-04-16T03:42:20.898Z,977.79
2016-04-16T03:43:08.148Z,977.76
2016-04-16T03:44:08.152Z,977.78
2016-04-16T03:45:08.154Z,977.75
2016-04-16T03:46:08.157Z,977.76
2016-04-16T03:47:08.159Z,977.83
2016-04-16T03:48:08.147Z,977.84
2016-04-16T03:49:08.150Z,977.88
2016-04-16T03:50:08.152Z,977.82
2016-04-16T03:51:08.155Z,977.8
2016-04-16T03:52:08.157Z,977.8
2016-04-16T03:53:08.145Z,977.75
2016-04-16T03:54:08.147Z,977.72
2016-04-16T03:55:08.150Z,977.67
2016-04-16T03:56:08.152Z,977.65
2016-04-16T03:57:08.155Z,977.62
2016-04-16T03:58:20.894Z,977.58
2016-04-16T03:59:08.144Z,977.64
2016-04-16T04:00:08.147Z,977.63
2016-04-16T04:01:08.149Z,977.59
2016-04-16T04:02:08.152Z,977.61
2016-04-16T04:03:08.140Z,977.68
2016-04-16T04:04:08.143Z,977.66
2016-04-16T04:05:08.146Z,977.67
2016-04-16T04:06:08.148Z,977.64
2016-04-16T04:07:20.887Z,977.66
2016-04-16T04:08:08.153Z,977.63
2016-04-16T04:09:08.156Z,977.64
2016-04-16T04:10:08.143Z,977.66
2016-04-16T04:11:08.146Z,977.65
2016-04-16T04:12:08.149Z,977.65
2016-04-16T04:13:08.151Z,977.56
2016-04-16T04:14:08.154Z,977.59
2016-04-16T04:15:08.156Z,977.59
2016-04-16T04:16:08.144Z,977.57
2016-04-16T04:17:20.883Z,977.55
2016-04-16T04:18:08.149Z,977.48
2016-04-16T04:19:08.152Z,977.49
2016-04-16T04:20:08.155Z,977.53
2016-04-16T04:21:08.158Z,977.51
2016-04-16T04:22:08.161Z,977.45
2016-04-16T04:23:08.163Z,977.46
2016-04-16T04:24:08.150Z,977.48
2016-04-16T04:25:08.152Z,977.44
2016-04-16T04:26:08.155Z,977.47
2016-04-16T04:27:08.141Z,977.39
2016-04-16T04:28:08.144Z,977.31
2016-04-16T04:29:20.885Z,977.32
2016-04-16T04:30:08.150Z,977.34
2016-04-16T04:31:08.169Z,977.36
2016-04-16T04:32:08.155Z,977.38
2016-04-16T04:33:08.158Z,977.33
2016-04-16T04:34:08.160Z,977.32
2016-04-16T04:35:08.164Z,977.21
2016-04-16T04:36:08.166Z,977.24
2016-04-16T04:37:08.138Z,977.21
2016-04-16T04:38:08.157Z,977.22
2016-04-16T04:39:08.143Z,977.19
2016-04-16T04:40:08.146Z,977.17
2016-04-16T04:41:20.885Z,977.21
2016-04-16T04:42:08.135Z,977.21
2016-04-16T04:43:08.153Z,977.21
2016-04-16T04:44:08.141Z,977.15
2016-04-16T04:45:08.143Z,977.25
2016-04-16T04:46:08.131Z,977.24
2016-04-16T04:47:08.134Z,977.27
2016-04-16T04:48:08.151Z,977.26
2016-04-16T04:49:08.139Z,977.32
2016-04-16T04:50:08.141Z,977.33
2016-04-16T04:51:08.144Z,977.31
2016-04-16T04:52:08.131Z,977.27
2016-04-16T04:53:08.150Z,977.32
2016-04-16T04:54:14.405Z,977.25
2016-04-16T04:55:08.139Z,977.36
2016-04-16T04:56:08.142Z,977.27
2016-04-16T04:57:08.144Z,977.38
2016-04-16T04:58:08.147Z,977.41
2016-04-16T04:59:08.134Z,977.46
2016-04-16T05:00:20.874Z,977.58
2016-04-16T05:01:08.140Z,977.54
2016-04-16T05:02:08.143Z,977.58
2016-04-16T05:03:08.130Z,977.56
2016-04-16T05:04:08.148Z,977.55
2016-04-16T05:05:08.151Z,977.53
2016-04-16T05:06:08.137Z,977.54
2016-04-16T05:07:08.140Z,977.61
2016-04-16T05:08:08.146Z,977.55
2016-04-16T05:09:08.149Z,977.62
2016-04-16T05:10:20.873Z,977.62
2016-04-16T05:11:08.138Z,977.63
2016-04-16T05:12:08.140Z,977.55
2016-04-16T05:13:27.349Z,977.52
2016-04-16T05:14:08.146Z,977.35
2016-04-16T05:15:08.149Z,977.36
2016-04-16T05:16:08.137Z,977.27
2016-04-16T05:17:08.154Z,977.33
2016-04-16T05:18:08.141Z,977.3
2016-04-16T05:19:08.144Z,977.33
2016-04-16T05:20:08.147Z,977.36
2016-04-16T05:21:08.150Z,977.31
2016-04-16T05:22:08.153Z,977.3
2016-04-16T05:23:08.156Z,977.28
2016-04-16T05:24:08.142Z,977.35
2016-04-16T05:25:08.145Z,977.34
2016-04-16T05:26:08.164Z,977.36
2016-04-16T05:27:08.150Z,977.39
2016-04-16T05:28:08.152Z,977.43
2016-04-16T05:29:20.877Z,977.49
2016-04-16T05:30:08.158Z,977.48
2016-04-16T05:31:08.161Z,977.54
2016-04-16T05:32:08.164Z,977.58
2016-04-16T05:33:08.167Z,977.55
2016-04-16T05:34:08.153Z,977.61
2016-04-16T05:35:08.155Z,977.6
2016-04-16T05:36:08.158Z,977.63
2016-04-16T05:37:08.161Z,977.63
2016-04-16T05:38:08.164Z,977.63
2016-04-16T05:39:08.151Z,977.59
2016-04-16T05:40:08.154Z,977.6
2016-04-16T05:41:11.188Z,977.63
2016-04-16T05:42:08.160Z,977.64
2016-04-16T05:43:08.162Z,977.64
2016-04-16T05:44:08.165Z,977.67
2016-04-16T05:45:08.167Z,977.71
2016-04-16T05:46:08.170Z,977.72
2016-04-16T05:47:08.157Z,977.72
2016-04-16T05:48:08.159Z,977.75
2016-04-16T05:49:08.163Z,977.75
2016-04-16T05:50:08.165Z,977.73
2016-04-16T05:51:20.905Z,977.76
2016-04-16T05:52:14.420Z,977.72
2016-04-16T05:53:08.158Z,977.75
2016-04-16T05:54:08.161Z,977.79
2016-04-16T05:55:08.163Z,977.82
2016-04-16T05:56:08.166Z,977.84
2016-04-16T05:57:08.169Z,977.9
2016-04-16T05:58:08.171Z,977.93
2016-04-16T05:59:08.174Z,977.98
2016-04-16T06:00:08.176Z,978.02
2016-04-16T06:01:08.180Z,977.97
2016-04-16T06:02:08.166Z,978.01
2016-04-16T06:03:08.169Z,977.99
2016-04-16T06:04:08.171Z,978.06
2016-04-16T06:05:20.911Z,978.17
2016-04-16T06:06:08.177Z,978.21
2016-04-16T06:07:08.179Z,978.21
2016-04-16T06:08:08.182Z,978.17
2016-04-16T06:09:08.185Z,978.21
2016-04-16T06:10:08.187Z,978.21
2016-04-16T06:11:08.174Z,978.24
2016-04-16T06:12:08.177Z,978.25
2016-04-16T06:13:08.180Z,978.33
2016-04-16T06:14:08.183Z,978.34
2016-04-16T06:15:08.185Z,978.33
2016-04-16T06:16:08.188Z,978.47
2016-04-16T06:17:08.191Z,978.35
2016-04-16T06:18:20.931Z,978.38
2016-04-16T06:19:08.181Z,978.44
2016-04-16T06:20:08.184Z,978.53
2016-04-16T06:21:08.217Z,978.5
2016-04-16T06:22:08.204Z,978.5
2016-04-16T06:23:08.191Z,978.56
2016-04-16T06:24:08.195Z,978.53
2016-04-16T06:25:08.181Z,978.5
2016-04-16T06:26:08.200Z,978.49
2016-04-16T06:27:08.187Z,978.46
2016-04-16T06:28:08.189Z,978.51
2016-04-16T06:29:08.191Z,978.54
2016-04-16T06:30:20.931Z,978.54
2016-04-16T06:31:08.197Z,978.54
2016-04-16T06:32:08.200Z,978.55
2016-04-16T06:33:08.186Z,978.62
2016-04-16T06:34:08.205Z,978.52
2016-04-16T06:35:08.192Z,978.63
2016-04-16T06:36:08.194Z,978.66
2016-04-16T06:37:08.198Z,978.65
2016-04-16T06:38:08.200Z,978.65
2016-04-16T06:39:08.203Z,978.57
2016-04-16T06:40:08.190Z,978.62
2016-04-16T06:41:08.193Z,978.69
2016-04-16T06:42:08.196Z,978.63
2016-04-16T06:43:08.199Z,978.63
2016-04-16T06:44:08.202Z,978.73
2016-04-16T06:45:08.204Z,978.7
2016-04-16T06:46:08.191Z,978.78
2016-04-16T06:47:08.193Z,978.78
2016-04-16T06:48:08.196Z,978.79
2016-04-16T06:49:08.199Z,978.72
2016-04-16T06:50:20.939Z,978.79
2016-04-16T06:51:08.204Z,978.82
2016-04-16T06:52:08.207Z,978.83
2016-04-16T06:53:08.210Z,978.87
2016-04-16T06:54:08.212Z,978.87
2016-04-16T06:55:08.200Z,978.88
2016-04-16T06:56:20.939Z,978.9
2016-04-16T06:57:08.205Z,978.97
2016-04-16T06:58:08.208Z,978.87
2016-04-16T06:59:08.211Z,978.98
2016-04-16T07:00:08.213Z,979
2016-04-16T07:01:08.200Z,978.96
2016-04-16T07:02:20.939Z,979.05
2016-04-16T07:03:20.942Z,979.05
2016-04-16T07:04:08.208Z,979.06
2016-04-16T07:05:08.211Z,978.99
2016-04-16T07:06:08.604Z,978.98
2016-04-16T07:07:20.953Z,978.93
2016-04-16T07:08:08.219Z,978.96
2016-04-16T07:09:08.205Z,978.91
2016-04-16T07:10:08.208Z,978.95
2016-04-16T07:11:08.210Z,978.84
2016-04-16T07:12:08.214Z,978.79
2016-04-16T07:13:08.217Z,978.86
2016-04-16T07:14:08.218Z,978.93
2016-04-16T07:15:08.207Z,978.94
2016-04-16T07:16:08.209Z,978.94
2016-04-16T07:17:08.212Z,978.99
2016-04-16T07:18:08.230Z,978.92
2016-04-16T07:19:08.217Z,978.92
2016-04-16T07:20:08.220Z,978.93
2016-04-16T07:21:08.253Z,978.95
2016-04-16T07:22:08.225Z,979.11
2016-04-16T07:23:08.228Z,979.12
2016-04-16T07:24:20.967Z,979.06
2016-04-16T07:25:20.954Z,979.08
2016-04-16T07:26:08.220Z,979.07
2016-04-16T07:27:08.223Z,979.08
2016-04-16T07:28:08.225Z,979.1
2016-04-16T07:29:08.244Z,979.11
2016-04-16T07:30:08.231Z,979.08
2016-04-16T07:31:08.234Z,979
2016-04-16T07:32:08.221Z,979
2016-04-16T07:33:08.239Z,978.99
2016-04-16T07:34:08.226Z,979.06
2016-04-16T07:35:08.228Z,979
2016-04-16T07:36:20.969Z,979.07
2016-04-16T07:37:08.234Z,979.02
2016-04-16T07:38:08.236Z,978.95
2016-04-16T07:39:08.239Z,979.02
2016-04-16T07:40:08.226Z,978.98
2016-04-16T07:41:08.229Z,978.93
2016-04-16T07:42:08.233Z,978.97
2016-04-16T07:43:08.249Z,978.98
2016-04-16T07:44:08.237Z,978.97
2016-04-16T07:45:08.240Z,978.91
2016-04-16T07:46:20.980Z,978.94
2016-04-16T07:47:08.246Z,978.92
2016-04-16T07:48:08.233Z,978.91
2016-04-16T07:49:08.235Z,978.88
2016-04-16T07:50:08.238Z,978.87
2016-04-16T07:51:08.240Z,978.96
2016-04-16T07:52:20.981Z,978.91
2016-04-16T07:53:08.246Z,978.95
2016-04-16T07:54:08.249Z,978.96
2016-04-16T07:55:08.251Z,979.01
2016-04-16T07:56:08.239Z,979.09
2016-04-16T07:57:08.257Z,978.91
2016-04-16T07:58:20.996Z,978.94
2016-04-16T07:59:08.261Z,978.93
2016-04-16T08:00:08.249Z,978.95
2016-04-16T08:01:08.253Z,978.92
2016-04-16T08:02:08.255Z,979
2016-04-16T08:03:08.257Z,978.96
2016-04-16T08:04:08.260Z,979.05
2016-04-16T08:05:08.263Z,979.1
2016-04-16T08:06:21.018Z,979.08
2016-04-16T08:07:08.268Z,978.99
2016-04-16T08:08:08.271Z,979.01
2016-04-16T08:09:08.274Z,979.07
2016-04-16T08:10:08.277Z,979.15
2016-04-16T08:11:08.279Z,979.12
2016-04-16T08:12:21.018Z,979.08
2016-04-16T08:13:08.284Z,979.02
2016-04-16T08:14:08.287Z,979.14
2016-04-16T08:15:08.290Z,979.11
2016-04-16T08:16:08.292Z,979.12
2016-04-16T08:17:08.285Z,979.12
2016-04-16T08:18:21.024Z,979.09
2016-04-16T08:19:08.290Z,979.1
2016-04-16T08:20:08.308Z,979.08
2016-04-16T08:21:08.310Z,979.11
2016-04-16T08:22:08.312Z,979.08
2016-04-16T08:23:08.316Z,979.09
2016-04-16T08:24:08.318Z,979.06
2016-04-16T08:25:08.321Z,979.09
2016-04-16T08:26:08.308Z,979.1
2016-04-16T08:27:08.311Z,979.04
2016-04-16T08:28:08.314Z,979.07
2016-04-16T08:29:08.316Z,979.06
2016-04-16T08:30:08.319Z,979.11
2016-04-16T08:31:08.322Z,979.12
2016-04-16T08:32:08.325Z,979.08
2016-04-16T08:33:08.327Z,979.14
2016-04-16T08:34:08.330Z,979.1
2016-04-16T08:35:08.333Z,979.15
2016-04-16T08:36:08.319Z,979.2
2016-04-16T08:37:08.322Z,979.25
2016-04-16T08:38:08.325Z,979.24
2016-04-16T08:39:08.327Z,979.29
2016-04-16T08:40:08.330Z,979.29
2016-04-16T08:41:08.333Z,979.3
2016-04-16T08:42:08.335Z,979.29
2016-04-16T08:43:08.338Z,979.32
2016-04-16T08:44:21.076Z,979.39
2016-04-16T08:45:08.344Z,979.34
2016-04-16T08:46:08.347Z,979.37
2016-04-16T08:47:08.349Z,979.39
2016-04-16T08:48:08.368Z,979.42
2016-04-16T08:49:08.354Z,979.46
2016-04-16T08:50:08.357Z,979.46
2016-04-16T08:51:08.360Z,979.51
2016-04-16T08:52:08.363Z,979.5
2016-04-16T08:53:08.365Z,979.5
2016-04-16T08:54:08.368Z,979.52
2016-04-16T08:55:08.371Z,979.48
2016-04-16T08:56:08.373Z,979.47
2016-04-16T08:57:08.361Z,979.44
2016-04-16T08:58:08.378Z,979.5
2016-04-16T08:59:08.366Z,979.56
2016-04-16T09:00:08.368Z,979.59
2016-04-16T09:01:08.387Z,979.57
2016-04-16T09:02:21.108Z,979.62
2016-04-16T09:03:08.392Z,979.63
2016-04-16T09:04:08.380Z,979.58
2016-04-16T09:05:08.382Z,979.62
2016-04-16T09:06:08.385Z,979.6
2016-04-16T09:07:08.388Z,979.58
2016-04-16T09:08:08.391Z,979.63
2016-04-16T09:09:08.393Z,979.62
2016-04-16T09:10:08.411Z,979.64
2016-04-16T09:11:21.132Z,979.79
2016-04-16T09:12:08.401Z,979.76
2016-04-16T09:13:08.404Z,979.79
2016-04-16T09:14:08.406Z,979.83
2016-04-16T09:15:08.409Z,979.86
2016-04-16T09:16:08.412Z,979.78
2016-04-16T09:17:08.415Z,979.76
2016-04-16T09:18:08.433Z,979.73
2016-04-16T09:19:08.434Z,979.71
2016-04-16T09:20:08.437Z,979.67
2016-04-16T09:21:08.425Z,979.65
2016-04-16T09:22:08.428Z,979.6
2016-04-16T09:23:08.445Z,979.74
2016-04-16T09:24:08.434Z,979.7
2016-04-16T09:25:08.451Z,979.75
2016-04-16T09:26:21.189Z,979.75
2016-04-16T09:27:21.191Z,979.77
2016-04-16T09:28:08.444Z,979.81
2016-04-16T09:29:08.462Z,979.82
2016-04-16T09:30:08.450Z,979.77
2016-04-16T09:31:08.453Z,979.73
2016-04-16T09:32:21.189Z,979.7
2016-04-16T09:33:08.458Z,979.71
2016-04-16T09:34:08.460Z,979.67
2016-04-16T09:35:08.463Z,979.72
2016-04-16T09:36:08.480Z,979.75
2016-04-16T09:37:08.468Z,979.76
2016-04-16T09:38:08.471Z,979.71
2016-04-16T09:39:08.474Z,979.68
2016-04-16T09:40:08.477Z,979.67
2016-04-16T09:41:08.479Z,979.68
2016-04-16T09:42:08.685Z,979.68
2016-04-16T09:43:08.484Z,979.77
2016-04-16T09:44:08.487Z,979.82
2016-04-16T09:45:08.520Z,979.83
2016-04-16T09:46:08.507Z,979.91
2016-04-16T09:47:08.510Z,979.97
2016-04-16T09:48:08.513Z,979.95
2016-04-16T09:49:08.500Z,979.93
2016-04-16T09:50:08.503Z,979.96
2016-04-16T09:51:08.506Z,979.95
2016-04-16T09:52:21.259Z,980.02
2016-04-16T09:53:08.512Z,980.11
2016-04-16T09:54:08.514Z,980.11
2016-04-16T09:55:08.532Z,980.13
2016-04-16T09:56:08.519Z,980.2
2016-04-16T09:57:08.522Z,980.23
2016-04-16T09:58:08.540Z,980.17
2016-04-16T09:59:08.527Z,980.18
2016-04-16T10:00:21.264Z,980.21
2016-04-16T10:01:08.532Z,980.27
2016-04-16T10:02:08.536Z,980.26
2016-04-16T10:03:08.523Z,980.22
2016-04-16T10:04:08.525Z,980.22
2016-04-16T10:05:08.543Z,980.27
2016-04-16T10:06:08.530Z,980.26
2016-04-16T10:07:08.533Z,980.31
2016-04-16T10:08:08.536Z,980.34
2016-04-16T10:09:08.523Z,980.38
2016-04-16T10:10:08.541Z,980.42
2016-04-16T10:11:08.528Z,980.43
2016-04-16T10:12:08.531Z,980.4
2016-04-16T10:13:21.268Z,980.4
2016-04-16T10:14:08.536Z,980.46
2016-04-16T10:15:08.539Z,980.43
2016-04-16T10:16:08.542Z,980.47
2016-04-16T10:17:14.794Z,980.37
2016-04-16T10:18:08.532Z,980.36
2016-04-16T10:19:08.534Z,980.36
2016-04-16T10:20:08.537Z,980.37
2016-04-16T10:21:08.539Z,980.38
2016-04-16T10:22:21.276Z,980.35
2016-04-16T10:23:14.810Z,980.32
2016-04-16T10:24:08.532Z,980.31
2016-04-16T10:25:08.551Z,980.32
2016-04-16T10:26:08.537Z,980.39
2016-04-16T10:27:08.540Z,980.42
2016-04-16T10:28:21.261Z,980.41
2016-04-16T10:29:08.529Z,980.36
2016-04-16T10:30:08.531Z,980.36
2016-04-16T10:31:08.519Z,980.41
2016-04-16T10:32:08.522Z,980.43
2016-04-16T10:33:08.525Z,980.44
2016-04-16T10:34:08.542Z,980.55
2016-04-16T10:35:21.264Z,980.54
2016-04-16T10:36:08.533Z,980.55
2016-04-16T10:37:08.520Z,980.52
2016-04-16T10:38:08.523Z,980.54
2016-04-16T10:39:08.525Z,980.56
2016-04-16T10:40:08.513Z,980.5
2016-04-16T10:41:21.249Z,980.46
2016-04-16T10:42:08.518Z,980.49
2016-04-16T10:43:08.521Z,980.54
2016-04-16T10:44:08.524Z,980.5
2016-04-16T10:45:08.526Z,980.49
2016-04-16T10:46:08.529Z,980.45
2016-04-16T10:47:08.532Z,980.55
2016-04-16T10:48:08.518Z,980.65
2016-04-16T10:49:08.537Z,980.74
2016-04-16T10:50:08.523Z,980.74
2016-04-16T10:51:08.526Z,980.69
2016-04-16T10:52:08.590Z,980.69
2016-04-16T10:53:21.265Z,980.61
2016-04-16T10:54:08.518Z,980.54
2016-04-16T10:55:08.521Z,980.65
2016-04-16T10:56:08.523Z,980.74
2016-04-16T10:57:21.261Z,980.77
2016-04-16T10:58:08.529Z,980.82
2016-04-16T10:59:08.517Z,980.77
2016-04-16T11:00:08.520Z,980.8
2016-04-16T11:01:08.523Z,980.79
2016-04-16T11:02:21.290Z,980.85
2016-04-16T11:03:08.512Z,980.94
2016-04-16T11:04:08.530Z,980.99
2016-04-16T11:05:08.533Z,981.01
2016-04-16T11:06:08.519Z,981.13
2016-04-16T11:07:08.585Z,981.08
2016-04-16T11:08:08.525Z,981.09
2016-04-16T11:09:08.512Z,981.06
2016-04-16T11:10:08.531Z,981.02
2016-04-16T11:11:08.533Z,981.04
2016-04-16T11:12:21.255Z,981.11
2016-04-16T11:13:08.522Z,981.11
2016-04-16T11:14:08.525Z,981.15
2016-04-16T11:15:08.527Z,981.14
2016-04-16T11:16:08.530Z,981.15
2016-04-16T11:17:08.533Z,981.09
2016-04-16T11:18:08.521Z,981.06
2016-04-16T11:19:08.538Z,981.03
2016-04-16T11:20:08.526Z,981.06
2016-04-16T11:21:08.529Z,981.06
2016-04-16T11:22:08.547Z,981.05
2016-04-16T11:23:08.534Z,981.05
2016-04-16T11:24:08.537Z,981.03
2016-04-16T11:25:08.555Z,981.01
2016-04-16T11:26:08.526Z,981.05
2016-04-16T11:27:08.545Z,981.12
2016-04-16T11:28:08.548Z,981.12
2016-04-16T11:29:08.534Z,981.14
2016-04-16T11:30:08.537Z,981.2
2016-04-16T11:31:21.289Z,981.27
2016-04-16T11:32:08.543Z,981.3
2016-04-16T11:33:08.530Z,981.26
2016-04-16T11:34:08.533Z,981.34
2016-04-16T11:35:08.536Z,981.36
2016-04-16T11:36:08.553Z,981.46
2016-04-16T11:37:08.572Z,981.42
2016-04-16T11:38:08.544Z,981.43
2016-04-16T11:39:08.546Z,981.46
2016-04-16T11:40:08.549Z,981.44
2016-04-16T11:41:08.552Z,981.48
2016-04-16T11:42:08.538Z,981.51
2016-04-16T11:43:08.541Z,981.62
2016-04-16T11:44:08.544Z,981.67
2016-04-16T11:45:08.546Z,981.63
2016-04-16T11:46:08.549Z,981.61
2016-04-16T11:47:08.536Z,981.65
2016-04-16T11:48:21.288Z,981.69
2016-04-16T11:49:08.541Z,981.72
2016-04-16T11:50:08.544Z,981.68
2016-04-16T11:51:08.590Z,981.72
2016-04-16T11:52:08.637Z,981.58
2016-04-16T11:53:09.278Z,981.66
2016-04-16T11:54:08.715Z,981.66
2016-04-16T11:55:08.762Z,981.63
2016-04-16T11:56:08.782Z,981.62
2016-04-16T11:57:08.800Z,981.57
2016-04-16T11:58:08.802Z,981.65
2016-04-16T11:59:08.837Z,981.71
2016-04-16T12:00:21.573Z,981.68
2016-04-16T12:01:08.847Z,981.62
2016-04-16T12:02:08.857Z,981.56
2016-04-16T12:03:08.865Z,981.54
2016-04-16T12:04:08.873Z,981.51
2016-04-16T12:05:21.616Z,981.52
2016-04-16T12:06:08.870Z,981.54
2016-04-16T12:07:08.922Z,981.53
2016-04-16T12:08:08.881Z,981.53
2016-04-16T12:09:08.901Z,981.49
2016-04-16T12:10:08.907Z,981.5
2016-04-16T12:11:21.629Z,981.41
2016-04-16T12:12:08.898Z,981.41
2016-04-16T12:13:08.901Z,981.4
2016-04-16T12:14:08.889Z,981.34
2016-04-16T12:15:11.924Z,981.32
2016-04-16T12:16:08.911Z,981.33
2016-04-16T12:17:08.899Z,981.23
2016-04-16T12:18:08.903Z,981.32
2016-04-16T12:19:08.905Z,981.26
2016-04-16T12:20:08.909Z,981.29
2016-04-16T12:21:08.911Z,981.25
2016-04-16T12:22:08.898Z,981.25
2016-04-16T12:23:08.900Z,981.2
2016-04-16T12:24:08.919Z,981.22
2016-04-16T12:25:08.906Z,981.2
2016-04-16T12:26:08.909Z,981.24
2016-04-16T12:27:08.927Z,981.26
2016-04-16T12:28:21.649Z,981.34
2016-04-16T12:29:08.933Z,981.24
2016-04-16T12:30:08.919Z,981.31